Laguepe — 9HAI9 — position and weather

sailwx.info

Track history (hours):
 
Tides and Currents Weather Stations Pressure Air Temp Water Temp Dewpoint Dewpoint Depression Visibility Wind Speed Wind Dir Waves Ship Positions

Laguepe

Last reported at 2014-Nov-26 06:34 UTC. Time now 2014-Nov-27 05:29 UTC.
Position N 43°23' E 004°48'.

Length 81 m; draft 3.2 m.

Type: Cargo ship. MMSI: 256681000.

Date/timePositionNaut miles runAvg speedWind from/ knotsBaromVisibWave heightAir tempDewpointWater temp
2014-Nov-26 06:34N 43°23' E 004°48'2 2.1
2014-Nov-26 05:33N 43°23' E 004°51'7 6.5
2014-Nov-26 04:33N 43°20' E 004°59'6 5.7
2014-Nov-26 03:33N 43°15' E 005°02'5 4.7
2014-Nov-26 02:33N 43°11' E 005°06'21 5.1
2014-Nov-25 22:30N 43°05' E 005°33'5 5.1
2014-Nov-25 21:32N 43°04' E 005°40'6 5.7
2014-Nov-25 20:33N 43°02' E 005°47'5 5.0
2014-Nov-25 19:34N 43°00' E 005°53'5 4.8
2014-Nov-25 18:34N 42°59' E 005°60'5 5.0
2014-Nov-25 17:34N 42°58' E 006°06'6 5.7
2014-Nov-25 16:34N 42°57' E 006°14'6 6.5
2014-Nov-25 15:33N 42°57' E 006°23'7 6.5
2014-Nov-25 14:33N 42°60' E 006°31'7 6.7
2014-Nov-25 13:33N 43°03' E 006°38'6 6.4
2014-Nov-25 12:33N 43°07' E 006°46'6 6.3
2014-Nov-25 11:33N 43°10' E 006°53'5 5.5
2014-Nov-25 10:33N 43°13' E 006°59'6 5.8
2014-Nov-25 09:33N 43°16' E 007°06'12 5.9
2014-Nov-25 07:32N 43°23' E 007°19'9 5.9
2014-Nov-25 06:05N 43°28' E 007°29'3 6.0
2014-Nov-25 05:32N 43°30' E 007°33'60 6.0
2014-Nov-24 19:31N 44°13' E 008°31'6 6.1
2014-Nov-24 18:32N 44°19' E 008°31'1 0.1
2014-Nov-24 11:09N 44°19' E 008°30'0 0.0
2014-Nov-24 09:19N 44°19' E 008°30'0 0.0
2014-Nov-24 08:06N 44°19' E 008°30'0 0.0
2014-Nov-24 07:31N 44°19' E 008°30'1 0.9
2014-Nov-24 06:30N 44°18' E 008°31'4 3.7
2014-Nov-24 05:31N 44°15' E 008°31'10 6.9
2014-Nov-24 04:05N 44°05' E 008°26'4 7.2
2014-Nov-24 03:33N 44°02' E 008°24'51 6.1
2014-Nov-23 19:17N 43°34' E 007°25'4 5.7
2014-Nov-23 18:33N 43°32' E 007°20'6 5.9
2014-Nov-23 17:33N 43°30' E 007°12'6 5.6
2014-Nov-23 16:33N 43°26' E 007°07'6 5.6
2014-Nov-23 15:33N 43°22' E 007°02'5 5.5
2014-Nov-23 14:33N 43°18' E 006°56'6 5.7
2014-Nov-23 13:33N 43°14' E 006°51'6 5.5
2014-Nov-23 12:34N 43°10' E 006°46'6 5.6
2014-Nov-23 11:31N 43°06' E 006°40'6 5.9
2014-Nov-23 10:33N 43°02' E 006°34'6 5.8
2014-Nov-23 09:33N 42°59' E 006°28'6 5.6
2014-Nov-23 08:33N 42°57' E 006°20'6 5.8
2014-Nov-23 07:33N 42°57' E 006°13'6 5.8
2014-Nov-23 06:33N 42°59' E 006°05'6 6.1
2014-Nov-23 05:33N 42°60' E 005°57'6 6.2
2014-Nov-23 04:33N 43°01' E 005°48'6 5.8
2014-Nov-23 03:33N 43°03' E 005°41'17 5.5
2014-Nov-23 00:25N 43°11' E 005°19'5 5.7
2014-Nov-22 23:33N 43°13' E 005°14'6 5.9
2014-Nov-22 22:33N 43°16' E 005°07'6 6.2
2014-Nov-22 21:34N 43°19' E 004°59'6 5.8
2014-Nov-22 20:33N 43°24' E 004°54'4 3.5
2014-Nov-22 19:25N 43°23' E 004°49'0 0.2
2014-Nov-22 18:26N 43°23' E 004°48'0 0.0
2014-Nov-22 17:29N 43°23' E 004°48'0 0.0
2014-Nov-22 16:26N 43°23' E 004°48'0 0.0
2014-Nov-22 15:26N 43°23' E 004°48'0 0.0
2014-Nov-22 14:32N 43°23' E 004°48'0 0.0
2014-Nov-22 13:32N 43°23' E 004°48'0 0.0
2014-Nov-22 12:32N 43°23' E 004°48'0 0.0
2014-Nov-22 11:29N 43°23' E 004°48'0 0.0
2014-Nov-22 10:32N 43°23' E 004°48'  
2014-Nov-19 09:20N 43°23' E 004°48'0 0.0
2014-Nov-19 08:33N 43°23' E 004°48'0 0.0
2014-Nov-19 07:34N 43°23' E 004°48'0 0.0
2014-Nov-19 06:33N 43°23' E 004°48'0 0.0
2014-Nov-19 05:33N 43°23' E 004°48'0 0.0
2014-Nov-19 04:33N 43°23' E 004°48'0 0.0
2014-Nov-19 03:33N 43°23' E 004°48'0 0.0
2014-Nov-19 02:33N 43°23' E 004°48'0 0.0
2014-Nov-19 01:34N 43°23' E 004°48'0 0.0
2014-Nov-19 00:33N 43°23' E 004°48'0 0.0
2014-Nov-18 23:34N 43°23' E 004°48'0 0.0
2014-Nov-18 22:33N 43°23' E 004°48'0 0.0
2014-Nov-18 21:33N 43°23' E 004°48'0 0.0
2014-Nov-18 20:33N 43°23' E 004°48'0 0.0
2014-Nov-18 19:33N 43°23' E 004°48'0 0.0
2014-Nov-18 18:33N 43°23' E 004°48'0 0.0
2014-Nov-18 17:33N 43°23' E 004°48'0 0.0
2014-Nov-18 16:33N 43°23' E 004°48'0 0.0
2014-Nov-18 15:33N 43°23' E 004°48'0 0.2
2014-Nov-18 14:34N 43°23' E 004°49'3 2.8
2014-Nov-18 13:33N 43°23' E 004°52'6 6.2
2014-Nov-18 12:33N 43°20' E 004°59'7 6.7
2014-Nov-18 11:34N 43°15' E 004°53'7 7.2
2014-Nov-18 10:33N 43°10' E 004°45'8 7.7
2014-Nov-18 09:33N 43°05' E 004°38'16 7.5
2014-Nov-18 07:27N 42°54' E 004°21'47 7.8
2014-Nov-18 01:24N 42°23' E 003°34'9 7.8
2014-Nov-18 00:17N 42°18' E 003°25'31 8.2
2014-Nov-17 20:34N 41°48' E 003°15'9 8.1
2014-Nov-17 19:30N 41°43' E 003°05'8 8.4
2014-Nov-17 18:30N 41°39' E 002°56'8 8.4
2014-Nov-17 17:30N 41°34' E 002°46'9 9.1
2014-Nov-17 16:30N 41°29' E 002°36'8 8.3
2014-Nov-17 15:34N 41°25' E 002°28'  
Track history (hours):
 
Tides and Currents Weather Stations Pressure Air Temp Water Temp Dewpoint Dewpoint Depression Visibility Wind Speed Wind Dir Waves Ship Positions

Laguepe

Last reported at 2014-Nov-26 06:34 UTC. Time now 2014-Nov-27 05:29 UTC.
Position N 43°23' E 004°48'.

Length 81 m; draft 3.2 m.

Type: Cargo ship. MMSI: 256681000.

Date/timePositionNaut miles runAvg speedWind from/ knotsBaromVisibWave heightAir tempDewpointWater temp
2014-Nov-26 06:34N 43°23' E 004°48'2 2.1
2014-Nov-26 05:33N 43°23' E 004°51'7 6.5
2014-Nov-26 04:33N 43°20' E 004°59'6 5.7
2014-Nov-26 03:33N 43°15' E 005°02'5 4.7
2014-Nov-26 02:33N 43°11' E 005°06'21 5.1
2014-Nov-25 22:30N 43°05' E 005°33'5 5.1
2014-Nov-25 21:32N 43°04' E 005°40'6 5.7
2014-Nov-25 20:33N 43°02' E 005°47'5 5.0
2014-Nov-25 19:34N 43°00' E 005°53'5 4.8
2014-Nov-25 18:34N 42°59' E 005°60'5 5.0
2014-Nov-25 17:34N 42°58' E 006°06'6 5.7
2014-Nov-25 16:34N 42°57' E 006°14'6 6.5
2014-Nov-25 15:33N 42°57' E 006°23'7 6.5
2014-Nov-25 14:33N 42°60' E 006°31'7 6.7
2014-Nov-25 13:33N 43°03' E 006°38'6 6.4
2014-Nov-25 12:33N 43°07' E 006°46'6 6.3
2014-Nov-25 11:33N 43°10' E 006°53'5 5.5
2014-Nov-25 10:33N 43°13' E 006°59'6 5.8
2014-Nov-25 09:33N 43°16' E 007°06'12 5.9
2014-Nov-25 07:32N 43°23' E 007°19'9 5.9
2014-Nov-25 06:05N 43°28' E 007°29'3 6.0
2014-Nov-25 05:32N 43°30' E 007°33'60 6.0
2014-Nov-24 19:31N 44°13' E 008°31'6 6.1
2014-Nov-24 18:32N 44°19' E 008°31'1 0.1
2014-Nov-24 11:09N 44°19' E 008°30'0 0.0
2014-Nov-24 09:19N 44°19' E 008°30'0 0.0
2014-Nov-24 08:06N 44°19' E 008°30'0 0.0
2014-Nov-24 07:31N 44°19' E 008°30'1 0.9
2014-Nov-24 06:30N 44°18' E 008°31'4 3.7
2014-Nov-24 05:31N 44°15' E 008°31'10 6.9
2014-Nov-24 04:05N 44°05' E 008°26'4 7.2
2014-Nov-24 03:33N 44°02' E 008°24'51 6.1
2014-Nov-23 19:17N 43°34' E 007°25'4 5.7
2014-Nov-23 18:33N 43°32' E 007°20'6 5.9
2014-Nov-23 17:33N 43°30' E 007°12'6 5.6
2014-Nov-23 16:33N 43°26' E 007°07'6 5.6
2014-Nov-23 15:33N 43°22' E 007°02'5 5.5
2014-Nov-23 14:33N 43°18' E 006°56'6 5.7
2014-Nov-23 13:33N 43°14' E 006°51'6 5.5
2014-Nov-23 12:34N 43°10' E 006°46'6 5.6
2014-Nov-23 11:31N 43°06' E 006°40'6 5.9
2014-Nov-23 10:33N 43°02' E 006°34'6 5.8
2014-Nov-23 09:33N 42°59' E 006°28'6 5.6
2014-Nov-23 08:33N 42°57' E 006°20'6 5.8
2014-Nov-23 07:33N 42°57' E 006°13'6 5.8
2014-Nov-23 06:33N 42°59' E 006°05'6 6.1
2014-Nov-23 05:33N 42°60' E 005°57'6 6.2
2014-Nov-23 04:33N 43°01' E 005°48'6 5.8
2014-Nov-23 03:33N 43°03' E 005°41'17 5.5
2014-Nov-23 00:25N 43°11' E 005°19'5 5.7
2014-Nov-22 23:33N 43°13' E 005°14'6 5.9
2014-Nov-22 22:33N 43°16' E 005°07'6 6.2
2014-Nov-22 21:34N 43°19' E 004°59'6 5.8
2014-Nov-22 20:33N 43°24' E 004°54'4 3.5
2014-Nov-22 19:25N 43°23' E 004°49'0 0.2
2014-Nov-22 18:26N 43°23' E 004°48'0 0.0
2014-Nov-22 17:29N 43°23' E 004°48'0 0.0
2014-Nov-22 16:26N 43°23' E 004°48'0 0.0
2014-Nov-22 15:26N 43°23' E 004°48'0 0.0
2014-Nov-22 14:32N 43°23' E 004°48'0 0.0
2014-Nov-22 13:32N 43°23' E 004°48'0 0.0
2014-Nov-22 12:32N 43°23' E 004°48'0 0.0
2014-Nov-22 11:29N 43°23' E 004°48'0 0.0
2014-Nov-22 10:32N 43°23' E 004°48'  
2014-Nov-19 09:20N 43°23' E 004°48'0 0.0
2014-Nov-19 08:33N 43°23' E 004°48'0 0.0
2014-Nov-19 07:34N 43°23' E 004°48'0 0.0
2014-Nov-19 06:33N 43°23' E 004°48'0 0.0
2014-Nov-19 05:33N 43°23' E 004°48'0 0.0
2014-Nov-19 04:33N 43°23' E 004°48'0 0.0
2014-Nov-19 03:33N 43°23' E 004°48'0 0.0
2014-Nov-19 02:33N 43°23' E 004°48'0 0.0
2014-Nov-19 01:34N 43°23' E 004°48'0 0.0
2014-Nov-19 00:33N 43°23' E 004°48'0 0.0
2014-Nov-18 23:34N 43°23' E 004°48'0 0.0
2014-Nov-18 22:33N 43°23' E 004°48'0 0.0
2014-Nov-18 21:33N 43°23' E 004°48'0 0.0
2014-Nov-18 20:33N 43°23' E 004°48'0 0.0
2014-Nov-18 19:33N 43°23' E 004°48'0 0.0
2014-Nov-18 18:33N 43°23' E 004°48'0 0.0
2014-Nov-18 17:33N 43°23' E 004°48'0 0.0
2014-Nov-18 16:33N 43°23' E 004°48'0 0.0
2014-Nov-18 15:33N 43°23' E 004°48'0 0.2
2014-Nov-18 14:34N 43°23' E 004°49'3 2.8
2014-Nov-18 13:33N 43°23' E 004°52'6 6.2
2014-Nov-18 12:33N 43°20' E 004°59'7 6.7
2014-Nov-18 11:34N 43°15' E 004°53'7 7.2
2014-Nov-18 10:33N 43°10' E 004°45'8 7.7
2014-Nov-18 09:33N 43°05' E 004°38'16 7.5
2014-Nov-18 07:27N 42°54' E 004°21'47 7.8
2014-Nov-18 01:24N 42°23' E 003°34'9 7.8
2014-Nov-18 00:17N 42°18' E 003°25'31 8.2
2014-Nov-17 20:34N 41°48' E 003°15'9 8.1
2014-Nov-17 19:30N 41°43' E 003°05'8 8.4
2014-Nov-17 18:30N 41°39' E 002°56'8 8.4
2014-Nov-17 17:30N 41°34' E 002°46'9 9.1
2014-Nov-17 16:30N 41°29' E 002°36'8 8.3
2014-Nov-17 15:34N 41°25' E 002°28'  

Dump ship's entire track history